Welcome to Des Moines Iowa Weather. I am an independent private personal weather station on the Northwest Side of Des Moines, Iowa. Just East of Windsor Heights and just West of Glendale . This site is also mobile friendly.

There are no active watches, warnings or advisories


Visit our other weather sites:

Historical Data

Weather Station Setup



Weather Underground History page Text

Daily Summary for October 6, 2017 Units:  English    Metric   Both
« Previous Day
Next Day »
Daily Weekly Monthly Yearly Custom
  High: Low: Average:
Temperature: 68.9 °F 63.7 °F 65.9 °F
Dew Point: 68.0 °F 63.0 °F 65.4 °F
Humidity: 98 % 97 % 98 %
Wind Speed: 3.0 mph 0.0 mph 0.1 mph
Wind Gust: 9.0 mph - -
Wind:- - SE
Pressure: 29.97 in 29.47 in -
Precipitation: 1.90 in    
Historical Graphs
 
 
Tabular Data for October 6, 2017
Time Temperature Dew Point Pressure Wind Wind Speed Wind Gust Humidity Rainfall Rate (Hourly)
00:14 64.0 °F 63.0 °F 29.97 in Calm   1.0 mph 97 % 0.01 in
00:29 64.1 °F 63.0 °F 29.96 in Calm   2.0 mph 97 % 0.01 in
00:44 64.2 °F 63.0 °F 29.96 in Calm   2.0 mph 97 % 0.01 in
00:59 64.2 °F 63.0 °F 29.95 in Calm     97 % 0.01 in
01:14 64.3 °F 64.0 °F 29.95 in Calm   3.0 mph 97 % 0.00 in
01:29 64.4 °F 64.0 °F 29.95 in Calm   1.0 mph 97 % 0.01 in
01:44 64.5 °F 64.0 °F 29.95 in Calm     97 % 0.01 in
01:59 64.6 °F 64.0 °F 29.95 in Calm     98 % 0.01 in
02:14 64.7 °F 64.0 °F 29.95 in Calm     98 % 0.01 in
02:29 64.7 °F 64.0 °F 29.94 in Calm   1.0 mph 98 % 0.01 in
02:44 64.7 °F 64.0 °F 29.94 in Calm     98 % 0.01 in
03:00 64.8 °F 64.0 °F 29.93 in Calm     98 % 0.01 in
03:14 64.9 °F 64.0 °F 29.92 in Calm     98 % 0.01 in
03:29 65.0 °F 65.0 °F 29.92 in Calm     98 % 0.00 in
03:45 65.0 °F 65.0 °F 29.92 in Calm     98 % 0.00 in
03:59 65.0 °F 65.0 °F 29.92 in Calm     98 % 0.00 in
04:15 65.0 °F 65.0 °F 29.92 in Calm     98 % 0.01 in
04:30 65.0 °F 65.0 °F 29.92 in Calm   1.0 mph 98 % 0.02 in
04:45 65.0 °F 65.0 °F 29.92 in Calm     98 % 0.02 in
05:00 65.0 °F 65.0 °F 29.92 in Calm     98 % 0.05 in
05:15 65.1 °F 65.0 °F 29.91 in Calm   1.0 mph 98 % 0.06 in
05:30 65.1 °F 65.0 °F 29.91 in Calm     98 % 0.06 in
05:45 65.1 °F 65.0 °F 29.91 in Calm     98 % 0.06 in
06:00 65.1 °F 65.0 °F 29.91 in Calm     98 % 0.03 in
06:15 65.0 °F 65.0 °F 29.90 in Calm     98 % 0.02 in
06:30 65.1 °F 65.0 °F 29.91 in Calm     98 % 0.01 in
06:45 64.9 °F 64.0 °F 29.90 in Calm   1.0 mph 98 % 0.02 in
07:00 64.9 °F 64.0 °F 29.90 in Calm     98 % 0.02 in
07:15 64.9 °F 64.0 °F 29.89 in Calm   1.0 mph 98 % 0.01 in
07:30 64.8 °F 64.0 °F 29.89 in Calm   1.0 mph 98 % 0.01 in
07:44 64.8 °F 64.2 °F 29.89 in Calm     98 % 0.00 in
07:49 64.8 °F 64.2 °F 29.89 in Calm     98 % 0.00 in
07:54 64.8 °F 64.2 °F 29.89 in Calm     98 % 0.00 in
07:59 64.8 °F 64.2 °F 29.89 in Calm     98 % 0.00 in
08:04 64.9 °F 64.3 °F 29.89 in Calm     98 % 0.00 in
08:09 64.9 °F 64.3 °F 29.89 in Calm     98 % 0.00 in
08:14 64.9 °F 64.3 °F 29.89 in Calm     98 % 0.00 in
08:24 64.9 °F 64.3 °F 29.89 in Calm     98 % 0.00 in
08:30 65.0 °F 65.0 °F 29.88 in Calm     98 % 0.10 in
08:45 64.9 °F 64.0 °F 29.87 in Calm   3.0 mph 98 % 0.21 in
09:00 64.9 °F 64.0 °F 29.87 in Calm     98 % 0.22 in
09:15 65.0 °F 65.0 °F 29.87 in Calm   3.0 mph 98 % 0.22 in
09:45 65.0 °F 65.0 °F 29.86 in Calm   1.0 mph 98 % 0.01 in
10:00 65.1 °F 65.0 °F 29.85 in Calm   3.0 mph 98 % 0.00 in
10:15 65.3 °F 65.0 °F 29.84 in SSE 2.0 mph 6.0 mph 98 % 0.00 in
10:30 65.5 °F 65.0 °F 29.84 in East 3.0 mph 4.0 mph 98 % 0.00 in
10:45 65.6 °F 65.0 °F 29.84 in Calm   2.0 mph 98 % 0.00 in
11:00 65.6 °F 65.0 °F 29.83 in Calm   2.0 mph 98 % 0.02 in
11:15 65.6 °F 65.0 °F 29.82 in Calm   3.0 mph 98 % 0.02 in
11:30 65.8 °F 65.0 °F 29.81 in Calm   3.0 mph 98 % 0.04 in
11:39 65.9 °F 65.3 °F 29.81 in Calm     98 % 0.04 in
11:44 65.9 °F 65.3 °F 29.81 in Calm     98 % 0.04 in
11:49 66.0 °F 65.4 °F 29.81 in Calm     98 % 0.00 in
12:00 66.1 °F 66.0 °F 29.80 in SE 3.0 mph 5.0 mph 98 % 0.03 in
12:15 66.3 °F 66.0 °F 29.79 in Calm   1.0 mph 98 % 0.04 in
12:31 66.4 °F 66.0 °F 29.79 in Calm   3.0 mph 98 % 0.02 in
12:45 66.7 °F 66.0 °F 29.78 in Calm   1.0 mph 98 % 0.03 in
13:01 67.0 °F 67.0 °F 29.76 in Calm   2.0 mph 98 % 0.04 in
13:16 67.3 °F 67.0 °F 29.75 in Calm   4.0 mph 98 % 0.04 in
13:31 67.6 °F 67.0 °F 29.73 in Calm     98 % 0.05 in
13:46 67.9 °F 67.0 °F 29.72 in Calm   2.0 mph 98 % 0.03 in
14:01 68.1 °F 68.0 °F 29.71 in Calm   2.0 mph 98 % 0.02 in
14:16 68.1 °F 68.0 °F 29.70 in Calm   3.0 mph 98 % 0.01 in
14:31 68.1 °F 68.0 °F 29.68 in Calm   1.0 mph 98 % 0.00 in
14:46 68.3 °F 68.0 °F 29.67 in Calm   4.0 mph 98 % 0.00 in
15:31 68.6 °F 68.0 °F 29.65 in Calm   6.0 mph 98 % 0.00 in
15:46 68.6 °F 68.0 °F 29.64 in Calm   3.0 mph 98 % 0.00 in
16:01 68.7 °F 68.0 °F 29.63 in Calm   3.0 mph 98 % 0.00 in
16:17 68.7 °F 68.0 °F 29.62 in Calm   3.0 mph 98 % 0.01 in
16:31 68.7 °F 68.0 °F 29.62 in Calm     98 % 0.01 in
16:46 68.7 °F 68.0 °F 29.61 in Calm     98 % 0.01 in
17:01 68.8 °F 68.0 °F 29.60 in Calm   3.0 mph 98 % 0.01 in
17:16 68.9 °F 68.0 °F 29.59 in Calm   1.0 mph 98 % 0.00 in
17:32 68.9 °F 68.0 °F 29.59 in Calm   3.0 mph 98 % 0.00 in
17:47 68.9 °F 68.0 °F 29.59 in Calm   3.0 mph 98 % 0.06 in
18:01 68.9 °F 68.0 °F 29.59 in Calm   6.0 mph 98 % 0.32 in
18:16 67.7 °F 67.0 °F 29.59 in Calm   9.0 mph 98 % 0.97 in
18:31 66.8 °F 66.0 °F 29.59 in Calm   3.0 mph 98 % 1.23 in
18:46 66.0 °F 66.0 °F 29.59 in Calm   1.0 mph 98 % 1.22 in
19:02 65.1 °F 64.0 °F 29.59 in Calm     97 % 0.95 in
19:31 63.9 °F 63.0 °F 29.58 in Calm     98 % 0.06 in
19:46 63.8 °F 63.0 °F 29.57 in Calm   1.0 mph 98 % 0.00 in
20:01 63.7 °F 63.0 °F 29.56 in Calm     98 % 0.01 in
20:16 63.8 °F 63.0 °F 29.55 in Calm     98 % 0.01 in
20:32 63.9 °F 63.0 °F 29.55 in Calm     98 % 0.01 in
20:47 64.3 °F 64.0 °F 29.55 in Calm     98 % 0.04 in
20:52 64.6 °F 64.0 °F 29.55 in Calm     98 % 0.20 in
21:02 65.3 °F 65.0 °F 29.54 in Calm   2.0 mph 98 % 0.12 in
21:17 66.5 °F 66.0 °F 29.54 in Calm   5.0 mph 98 % 0.12 in
21:32 67.4 °F 67.0 °F 29.52 in Calm   3.0 mph 98 % 0.12 in
22:17 67.6 °F 67.0 °F 29.52 in Calm   3.0 mph 98 % 0.00 in
22:32 67.6 °F 67.0 °F 29.52 in Calm   5.0 mph 98 % 0.00 in
22:47 67.5 °F 67.0 °F 29.52 in Calm   2.0 mph 98 % 0.00 in
23:02 67.4 °F 67.0 °F 29.50 in Calm     98 % 0.00 in
23:17 67.3 °F 67.0 °F 29.50 in Calm     98 % 0.00 in
23:32 67.2 °F 67.0 °F 29.48 in Calm     98 % 0.00 in
23:47 67.1 °F 67.0 °F 29.47 in Calm     98 % 0.01 in
Des Moines Weather and Climate
Compliments of Weather Underground - 3 mb

Script developed by  Jim McMurry - jmcmurry@mwt.net Adapted for the template by  Wim van der Kuil - Leuven-Template.eu

You find our weather info also at:

Weather Underground

Equipment we use:

Weather-station
Davis VP2 Plus

Weather-program
Davis Weatherlink.Com

Weather-server
iMac (Retina 4K, 21.5-inch, Late 2015)

Provider
Hostmonster.com

Davis VP2 Plus

Davis Weatherlink.Com

iMac (Retina 4K, 21.5-inch, Late 2015)

Hostmonster.com